sensor_id;sensor_type;location;lat;lon;timestamp;P1;durP1;ratioP1;P2;durP2;ratioP2
37221;SDS011;23119;51.842;-2.230;2022-12-18T00:02:12;6.55;;;1.83;;
37221;SDS011;23119;51.842;-2.230;2022-12-18T00:04:41;7.47;;;1.60;;
37221;SDS011;23119;51.842;-2.230;2022-12-18T00:07:06;6.75;;;1.80;;
37221;SDS011;23119;51.842;-2.230;2022-12-18T00:09:40;4.40;;;1.75;;
37221;SDS011;23119;51.842;-2.230;2022-12-18T00:12:06;6.60;;;1.90;;
37221;SDS011;23119;51.842;-2.230;2022-12-18T00:14:32;6.75;;;2.25;;
37221;SDS011;23119;51.842;-2.230;2022-12-18T00:17:00;7.55;;;2.40;;
37221;SDS011;23119;51.842;-2.230;2022-12-18T00:19:29;7.97;;;1.77;;
37221;SDS011;23119;51.842;-2.230;2022-12-18T00:21:59;4.82;;;2.20;;
37221;SDS011;23119;51.842;-2.230;2022-12-18T00:24:25;9.55;;;2.05;;
37221;SDS011;23119;51.842;-2.230;2022-12-18T00:26:54;7.43;;;3.00;;
37221;SDS011;23119;51.842;-2.230;2022-12-18T00:29:20;7.80;;;2.30;;
37221;SDS011;23119;51.842;-2.230;2022-12-18T00:31:45;8.10;;;2.47;;
37221;SDS011;23119;51.842;-2.230;2022-12-18T00:34:11;7.18;;;2.58;;
37221;SDS011;23119;51.842;-2.230;2022-12-18T00:36:39;7.40;;;1.85;;
37221;SDS011;23119;51.842;-2.230;2022-12-18T00:39:05;8.45;;;2.40;;
37221;SDS011;23119;51.842;-2.230;2022-12-18T00:41:35;5.50;;;1.30;;
37221;SDS011;23119;51.842;-2.230;2022-12-18T00:44:19;5.90;;;1.75;;
37221;SDS011;23119;51.842;-2.230;2022-12-18T00:46:46;5.80;;;1.70;;
37221;SDS011;23119;51.842;-2.230;2022-12-18T00:49:13;5.65;;;1.98;;
37221;SDS011;23119;51.842;-2.230;2022-12-18T00:51:42;4.03;;;2.00;;
37221;SDS011;23119;51.842;-2.230;2022-12-18T00:54:08;5.47;;;2.13;;
37221;SDS011;23119;51.842;-2.230;2022-12-18T00:56:35;5.60;;;2.08;;
37221;SDS011;23119;51.842;-2.230;2022-12-18T00:59:02;5.85;;;2.40;;
37221;SDS011;23119;51.842;-2.230;2022-12-18T01:01:28;4.63;;;2.13;;
37221;SDS011;23119;51.842;-2.230;2022-12-18T01:03:56;7.03;;;1.90;;
37221;SDS011;23119;51.842;-2.230;2022-12-18T01:06:22;10.23;;;4.22;;
37221;SDS011;23119;51.842;-2.230;2022-12-18T01:08:48;5.35;;;1.80;;
37221;SDS011;23119;51.842;-2.230;2022-12-18T01:11:16;7.75;;;3.00;;
37221;SDS011;23119;51.842;-2.230;2022-12-18T01:13:42;7.68;;;2.42;;
37221;SDS011;23119;51.842;-2.230;2022-12-18T01:16:10;7.72;;;2.72;;
37221;SDS011;23119;51.842;-2.230;2022-12-18T01:18:37;42.25;;;14.63;;
37221;SDS011;23119;51.842;-2.230;2022-12-18T01:21:07;7.85;;;2.88;;
37221;SDS011;23119;51.842;-2.230;2022-12-18T01:23:34;11.82;;;2.88;;
37221;SDS011;23119;51.842;-2.230;2022-12-18T01:26:04;6.43;;;2.50;;
37221;SDS011;23119;51.842;-2.230;2022-12-18T01:28:34;8.73;;;2.20;;
37221;SDS011;23119;51.842;-2.230;2022-12-18T01:31:13;5.88;;;2.28;;
37221;SDS011;23119;51.842;-2.230;2022-12-18T01:33:41;7.20;;;2.85;;
37221;SDS011;23119;51.842;-2.230;2022-12-18T01:36:22;10.30;;;3.78;;
37221;SDS011;23119;51.842;-2.230;2022-12-18T01:38:50;9.48;;;2.75;;
37221;SDS011;23119;51.842;-2.230;2022-12-18T01:41:23;6.72;;;2.53;;
37221;SDS011;23119;51.842;-2.230;2022-12-18T01:47:58;7.32;;;2.22;;
37221;SDS011;23119;51.842;-2.230;2022-12-18T01:50:11;12.05;;;3.33;;
37221;SDS011;23119;51.842;-2.230;2022-12-18T01:52:44;7.88;;;2.65;;
37221;SDS011;23119;51.842;-2.230;2022-12-18T01:57:42;8.20;;;2.50;;
37221;SDS011;23119;51.842;-2.230;2022-12-18T02:00:10;8.60;;;2.92;;
37221;SDS011;23119;51.842;-2.230;2022-12-18T02:02:41;9.00;;;2.95;;
37221;SDS011;23119;51.842;-2.230;2022-12-18T02:05:09;7.93;;;3.05;;
37221;SDS011;23119;51.842;-2.230;2022-12-18T02:13:01;10.50;;;3.85;;
37221;SDS011;23119;51.842;-2.230;2022-12-18T02:18:48;13.35;;;4.63;;
37221;SDS011;23119;51.842;-2.230;2022-12-18T02:24:03;8.77;;;3.25;;
37221;SDS011;23119;51.842;-2.230;2022-12-18T02:26:55;10.07;;;3.08;;
37221;SDS011;23119;51.842;-2.230;2022-12-18T02:29:25;11.95;;;3.97;;
37221;SDS011;23119;51.842;-2.230;2022-12-18T02:31:57;9.45;;;3.25;;
37221;SDS011;23119;51.842;-2.230;2022-12-18T02:34:25;12.27;;;3.78;;
37221;SDS011;23119;51.842;-2.230;2022-12-18T02:36:54;12.85;;;4.20;;
37221;SDS011;23119;51.842;-2.230;2022-12-18T02:39:25;13.25;;;5.68;;
37221;SDS011;23119;51.842;-2.230;2022-12-18T02:41:57;16.17;;;5.05;;
37221;SDS011;23119;51.842;-2.230;2022-12-18T02:44:24;16.60;;;5.10;;
37221;SDS011;23119;51.842;-2.230;2022-12-18T02:46:51;15.98;;;5.63;;
37221;SDS011;23119;51.842;-2.230;2022-12-18T03:00:43;16.40;;;4.35;;
37221;SDS011;23119;51.842;-2.230;2022-12-18T03:03:19;11.73;;;3.40;;
37221;SDS011;23119;51.842;-2.230;2022-12-18T03:05:52;9.73;;;4.32;;
37221;SDS011;23119;51.842;-2.230;2022-12-18T03:08:22;14.43;;;6.03;;
37221;SDS011;23119;51.842;-2.230;2022-12-18T03:10:53;14.00;;;5.45;;
37221;SDS011;23119;51.842;-2.230;2022-12-18T03:13:31;16.63;;;5.20;;
37221;SDS011;23119;51.842;-2.230;2022-12-18T03:16:00;14.52;;;6.35;;
37221;SDS011;23119;51.842;-2.230;2022-12-18T03:18:34;11.73;;;5.32;;
37221;SDS011;23119;51.842;-2.230;2022-12-18T03:21:04;16.30;;;5.75;;
37221;SDS011;23119;51.842;-2.230;2022-12-18T03:23:34;12.43;;;5.57;;
37221;SDS011;23119;51.842;-2.230;2022-12-18T03:26:09;15.45;;;5.32;;
37221;SDS011;23119;51.842;-2.230;2022-12-18T03:28:45;12.60;;;5.32;;
37221;SDS011;23119;51.842;-2.230;2022-12-18T03:31:18;11.68;;;4.90;;
37221;SDS011;23119;51.842;-2.230;2022-12-18T03:33:55;13.80;;;4.70;;
37221;SDS011;23119;51.842;-2.230;2022-12-18T03:36:28;14.52;;;6.10;;
37221;SDS011;23119;51.842;-2.230;2022-12-18T03:38:53;15.63;;;6.18;;
37221;SDS011;23119;51.842;-2.230;2022-12-18T03:41:24;12.80;;;4.85;;
37221;SDS011;23119;51.842;-2.230;2022-12-18T03:49:22;14.32;;;6.10;;
37221;SDS011;23119;51.842;-2.230;2022-12-18T03:51:58;16.73;;;6.93;;
37221;SDS011;23119;51.842;-2.230;2022-12-18T03:54:34;20.48;;;8.38;;
37221;SDS011;23119;51.842;-2.230;2022-12-18T03:57:07;18.75;;;7.88;;
37221;SDS011;23119;51.842;-2.230;2022-12-18T03:59:38;17.42;;;6.88;;
37221;SDS011;23119;51.842;-2.230;2022-12-18T04:02:09;17.70;;;7.32;;
37221;SDS011;23119;51.842;-2.230;2022-12-18T04:04:38;16.60;;;7.40;;
37221;SDS011;23119;51.842;-2.230;2022-12-18T04:07:07;15.50;;;6.68;;
37221;SDS011;23119;51.842;-2.230;2022-12-18T04:09:33;16.17;;;6.68;;
37221;SDS011;23119;51.842;-2.230;2022-12-18T04:12:08;20.27;;;7.55;;
37221;SDS011;23119;51.842;-2.230;2022-12-18T04:14:37;22.08;;;7.85;;
37221;SDS011;23119;51.842;-2.230;2022-12-18T04:17:05;22.25;;;7.95;;
37221;SDS011;23119;51.842;-2.230;2022-12-18T04:19:33;20.98;;;8.30;;
37221;SDS011;23119;51.842;-2.230;2022-12-18T04:21:59;17.38;;;7.90;;
37221;SDS011;23119;51.842;-2.230;2022-12-18T04:24:24;21.50;;;8.57;;
37221;SDS011;23119;51.842;-2.230;2022-12-18T04:26:50;18.35;;;7.20;;
37221;SDS011;23119;51.842;-2.230;2022-12-18T04:29:16;17.80;;;7.22;;
37221;SDS011;23119;51.842;-2.230;2022-12-18T04:31:41;17.73;;;7.30;;
37221;SDS011;23119;51.842;-2.230;2022-12-18T04:34:07;19.42;;;8.23;;
37221;SDS011;23119;51.842;-2.230;2022-12-18T04:36:33;20.33;;;9.23;;
37221;SDS011;23119;51.842;-2.230;2022-12-18T04:38:58;17.77;;;8.35;;
37221;SDS011;23119;51.842;-2.230;2022-12-18T04:41:24;20.52;;;7.55;;
37221;SDS011;23119;51.842;-2.230;2022-12-18T04:43:50;18.88;;;8.48;;
37221;SDS011;23119;51.842;-2.230;2022-12-18T04:46:15;21.75;;;8.65;;
37221;SDS011;23119;51.842;-2.230;2022-12-18T04:48:41;20.40;;;8.88;;
37221;SDS011;23119;51.842;-2.230;2022-12-18T04:51:10;18.85;;;7.72;;
37221;SDS011;23119;51.842;-2.230;2022-12-18T04:53:38;19.95;;;7.82;;
37221;SDS011;23119;51.842;-2.230;2022-12-18T04:56:08;19.75;;;7.95;;
37221;SDS011;23119;51.842;-2.230;2022-12-18T04:58:36;20.00;;;9.25;;
37221;SDS011;23119;51.842;-2.230;2022-12-18T05:01:06;19.30;;;7.40;;
37221;SDS011;23119;51.842;-2.230;2022-12-18T05:03:35;22.00;;;8.60;;
37221;SDS011;23119;51.842;-2.230;2022-12-18T05:06:01;19.45;;;8.05;;
37221;SDS011;23119;51.842;-2.230;2022-12-18T05:08:27;20.63;;;8.10;;
37221;SDS011;23119;51.842;-2.230;2022-12-18T05:11:11;20.27;;;8.43;;
37221;SDS011;23119;51.842;-2.230;2022-12-18T05:13:44;18.85;;;7.40;;
37221;SDS011;23119;51.842;-2.230;2022-12-18T05:16:10;22.23;;;8.07;;
37221;SDS011;23119;51.842;-2.230;2022-12-18T05:18:45;21.35;;;9.35;;
37221;SDS011;23119;51.842;-2.230;2022-12-18T05:21:10;25.40;;;7.57;;
37221;SDS011;23119;51.842;-2.230;2022-12-18T05:23:36;17.05;;;8.38;;
37221;SDS011;23119;51.842;-2.230;2022-12-18T05:26:05;19.98;;;8.52;;
37221;SDS011;23119;51.842;-2.230;2022-12-18T05:28:32;23.58;;;8.55;;
37221;SDS011;23119;51.842;-2.230;2022-12-18T05:31:00;16.63;;;6.82;;
37221;SDS011;23119;51.842;-2.230;2022-12-18T05:33:29;21.55;;;7.13;;
37221;SDS011;23119;51.842;-2.230;2022-12-18T05:35:59;16.50;;;6.25;;
37221;SDS011;23119;51.842;-2.230;2022-12-18T05:38:31;14.07;;;6.55;;
37221;SDS011;23119;51.842;-2.230;2022-12-18T05:41:00;17.13;;;7.03;;
37221;SDS011;23119;51.842;-2.230;2022-12-18T05:43:26;17.65;;;6.88;;
37221;SDS011;23119;51.842;-2.230;2022-12-18T05:45:53;18.27;;;5.93;;
37221;SDS011;23119;51.842;-2.230;2022-12-18T05:48:19;16.92;;;6.85;;
37221;SDS011;23119;51.842;-2.230;2022-12-18T05:50:50;14.02;;;5.60;;
37221;SDS011;23119;51.842;-2.230;2022-12-18T05:53:18;16.38;;;6.57;;
37221;SDS011;23119;51.842;-2.230;2022-12-18T05:55:45;12.00;;;4.05;;
37221;SDS011;23119;51.842;-2.230;2022-12-18T05:58:12;18.10;;;6.65;;
37221;SDS011;23119;51.842;-2.230;2022-12-18T06:00:42;17.63;;;6.28;;
37221;SDS011;23119;51.842;-2.230;2022-12-18T06:03:09;12.02;;;4.90;;
37221;SDS011;23119;51.842;-2.230;2022-12-18T06:05:43;12.85;;;4.28;;
37221;SDS011;23119;51.842;-2.230;2022-12-18T06:08:10;18.73;;;7.13;;
37221;SDS011;23119;51.842;-2.230;2022-12-18T06:10:37;6.95;;;3.47;;
37221;SDS011;23119;51.842;-2.230;2022-12-18T06:13:05;15.55;;;6.03;;
37221;SDS011;23119;51.842;-2.230;2022-12-18T06:15:39;16.25;;;5.35;;
37221;SDS011;23119;51.842;-2.230;2022-12-18T06:18:05;14.38;;;5.90;;
37221;SDS011;23119;51.842;-2.230;2022-12-18T06:20:31;15.88;;;6.90;;
37221;SDS011;23119;51.842;-2.230;2022-12-18T06:22:57;13.10;;;5.28;;
37221;SDS011;23119;51.842;-2.230;2022-12-18T06:25:22;16.88;;;6.93;;
37221;SDS011;23119;51.842;-2.230;2022-12-18T06:27:48;11.13;;;5.50;;
37221;SDS011;23119;51.842;-2.230;2022-12-18T06:30:14;22.48;;;7.72;;
37221;SDS011;23119;51.842;-2.230;2022-12-18T06:32:45;21.02;;;7.93;;
37221;SDS011;23119;51.842;-2.230;2022-12-18T06:35:10;22.52;;;7.50;;
37221;SDS011;23119;51.842;-2.230;2022-12-18T06:37:38;15.30;;;7.28;;
37221;SDS011;23119;51.842;-2.230;2022-12-18T06:40:05;21.15;;;7.45;;
37221;SDS011;23119;51.842;-2.230;2022-12-18T06:42:31;17.38;;;8.15;;
37221;SDS011;23119;51.842;-2.230;2022-12-18T06:45:03;22.15;;;7.82;;
37221;SDS011;23119;51.842;-2.230;2022-12-18T06:47:31;20.35;;;6.72;;
37221;SDS011;23119;51.842;-2.230;2022-12-18T06:49:57;16.27;;;6.32;;
37221;SDS011;23119;51.842;-2.230;2022-12-18T06:52:22;16.48;;;6.82;;
37221;SDS011;23119;51.842;-2.230;2022-12-18T06:54:48;15.98;;;7.13;;
37221;SDS011;23119;51.842;-2.230;2022-12-18T06:57:14;18.00;;;7.22;;
37221;SDS011;23119;51.842;-2.230;2022-12-18T06:59:43;16.80;;;7.00;;
37221;SDS011;23119;51.842;-2.230;2022-12-18T07:02:10;17.23;;;6.97;;
37221;SDS011;23119;51.842;-2.230;2022-12-18T07:04:37;18.98;;;7.28;;
37221;SDS011;23119;51.842;-2.230;2022-12-18T07:07:06;16.65;;;6.95;;
37221;SDS011;23119;51.842;-2.230;2022-12-18T07:09:32;20.92;;;5.78;;
37221;SDS011;23119;51.842;-2.230;2022-12-18T07:12:00;20.05;;;7.50;;
37221;SDS011;23119;51.842;-2.230;2022-12-18T07:14:26;16.33;;;7.40;;
37221;SDS011;23119;51.842;-2.230;2022-12-18T07:16:51;20.90;;;6.95;;
37221;SDS011;23119;51.842;-2.230;2022-12-18T07:19:17;19.17;;;7.15;;
37221;SDS011;23119;51.842;-2.230;2022-12-18T07:22:05;18.25;;;7.50;;
37221;SDS011;23119;51.842;-2.230;2022-12-18T07:24:33;17.17;;;7.05;;
37221;SDS011;23119;51.842;-2.230;2022-12-18T07:26:59;14.90;;;6.55;;
37221;SDS011;23119;51.842;-2.230;2022-12-18T07:29:28;19.45;;;7.97;;
37221;SDS011;23119;51.842;-2.230;2022-12-18T07:31:54;17.90;;;7.25;;
37221;SDS011;23119;51.842;-2.230;2022-12-18T07:34:20;18.98;;;8.05;;
37221;SDS011;23119;51.842;-2.230;2022-12-18T07:36:48;16.40;;;6.68;;
37221;SDS011;23119;51.842;-2.230;2022-12-18T07:39:13;25.83;;;7.78;;
37221;SDS011;23119;51.842;-2.230;2022-12-18T07:41:42;16.02;;;6.95;;
37221;SDS011;23119;51.842;-2.230;2022-12-18T07:44:11;18.48;;;7.53;;
37221;SDS011;23119;51.842;-2.230;2022-12-18T07:46:37;15.43;;;7.32;;
37221;SDS011;23119;51.842;-2.230;2022-12-18T07:49:03;18.63;;;7.57;;
37221;SDS011;23119;51.842;-2.230;2022-12-18T07:51:32;16.73;;;7.38;;
37221;SDS011;23119;51.842;-2.230;2022-12-18T07:53:58;17.00;;;6.55;;
37221;SDS011;23119;51.842;-2.230;2022-12-18T07:56:23;19.27;;;7.63;;
37221;SDS011;23119;51.842;-2.230;2022-12-18T07:58:52;18.95;;;7.65;;
37221;SDS011;23119;51.842;-2.230;2022-12-18T08:01:21;20.05;;;7.35;;
37221;SDS011;23119;51.842;-2.230;2022-12-18T08:03:46;16.60;;;6.80;;
37221;SDS011;23119;51.842;-2.230;2022-12-18T08:06:12;20.70;;;7.00;;
37221;SDS011;23119;51.842;-2.230;2022-12-18T08:08:42;19.60;;;6.68;;
37221;SDS011;23119;51.842;-2.230;2022-12-18T08:11:11;20.13;;;7.28;;
37221;SDS011;23119;51.842;-2.230;2022-12-18T08:13:39;19.80;;;7.50;;
37221;SDS011;23119;51.842;-2.230;2022-12-18T08:16:05;20.30;;;7.20;;
37221;SDS011;23119;51.842;-2.230;2022-12-18T08:18:35;19.42;;;7.20;;
37221;SDS011;23119;51.842;-2.230;2022-12-18T08:21:12;18.17;;;6.65;;
37221;SDS011;23119;51.842;-2.230;2022-12-18T08:23:40;19.00;;;6.30;;
37221;SDS011;23119;51.842;-2.230;2022-12-18T08:26:06;21.67;;;8.57;;
37221;SDS011;23119;51.842;-2.230;2022-12-18T08:28:39;18.55;;;7.05;;
37221;SDS011;23119;51.842;-2.230;2022-12-18T08:31:06;17.27;;;6.53;;
37221;SDS011;23119;51.842;-2.230;2022-12-18T08:33:32;19.98;;;5.28;;
37221;SDS011;23119;51.842;-2.230;2022-12-18T08:36:02;20.60;;;6.15;;
37221;SDS011;23119;51.842;-2.230;2022-12-18T08:38:32;23.13;;;6.38;;
37221;SDS011;23119;51.842;-2.230;2022-12-18T08:40:58;6.45;;;2.83;;
37221;SDS011;23119;51.842;-2.230;2022-12-18T08:43:28;14.95;;;5.50;;
37221;SDS011;23119;51.842;-2.230;2022-12-18T08:46:12;8.07;;;2.78;;
37221;SDS011;23119;51.842;-2.230;2022-12-18T08:48:40;9.80;;;4.80;;
37221;SDS011;23119;51.842;-2.230;2022-12-18T08:51:06;17.02;;;4.20;;
37221;SDS011;23119;51.842;-2.230;2022-12-18T08:53:34;16.48;;;5.00;;
37221;SDS011;23119;51.842;-2.230;2022-12-18T08:56:01;7.90;;;3.40;;
37221;SDS011;23119;51.842;-2.230;2022-12-18T08:58:30;19.83;;;6.70;;
37221;SDS011;23119;51.842;-2.230;2022-12-18T09:01:00;14.88;;;5.18;;
37221;SDS011;23119;51.842;-2.230;2022-12-18T09:03:30;14.43;;;4.97;;
37221;SDS011;23119;51.842;-2.230;2022-12-18T09:05:56;16.55;;;6.80;;
37221;SDS011;23119;51.842;-2.230;2022-12-18T09:08:22;10.15;;;4.35;;
37221;SDS011;23119;51.842;-2.230;2022-12-18T09:10:50;13.60;;;5.20;;
37221;SDS011;23119;51.842;-2.230;2022-12-18T09:13:20;15.85;;;6.18;;
37221;SDS011;23119;51.842;-2.230;2022-12-18T09:15:49;8.23;;;3.78;;
37221;SDS011;23119;51.842;-2.230;2022-12-18T09:18:20;15.75;;;5.97;;
37221;SDS011;23119;51.842;-2.230;2022-12-18T09:20:48;16.23;;;6.72;;
37221;SDS011;23119;51.842;-2.230;2022-12-18T09:23:15;16.55;;;6.45;;
37221;SDS011;23119;51.842;-2.230;2022-12-18T09:25:41;13.35;;;5.38;;
37221;SDS011;23119;51.842;-2.230;2022-12-18T09:28:10;10.65;;;4.25;;
37221;SDS011;23119;51.842;-2.230;2022-12-18T09:30:38;13.40;;;6.53;;
37221;SDS011;23119;51.842;-2.230;2022-12-18T09:33:06;15.55;;;5.03;;
37221;SDS011;23119;51.842;-2.230;2022-12-18T09:35:34;18.08;;;7.30;;
37221;SDS011;23119;51.842;-2.230;2022-12-18T09:38:04;10.98;;;4.20;;
37221;SDS011;23119;51.842;-2.230;2022-12-18T09:40:33;14.20;;;6.28;;
37221;SDS011;23119;51.842;-2.230;2022-12-18T09:43:05;16.70;;;6.90;;
37221;SDS011;23119;51.842;-2.230;2022-12-18T09:45:42;21.38;;;7.38;;
37221;SDS011;23119;51.842;-2.230;2022-12-18T09:48:23;17.38;;;7.00;;
37221;SDS011;23119;51.842;-2.230;2022-12-18T09:50:57;13.38;;;6.55;;
37221;SDS011;23119;51.842;-2.230;2022-12-18T09:56:03;13.52;;;6.13;;
37221;SDS011;23119;51.842;-2.230;2022-12-18T09:58:31;20.63;;;7.68;;
37221;SDS011;23119;51.842;-2.230;2022-12-18T10:03:53;8.00;;;2.58;;
37221;SDS011;23119;51.842;-2.230;2022-12-18T10:17:43;17.95;;;5.10;;
37221;SDS011;23119;51.842;-2.230;2022-12-18T10:27:49;21.05;;;6.40;;
37221;SDS011;23119;51.842;-2.230;2022-12-18T10:30:23;17.67;;;6.95;;
37221;SDS011;23119;51.842;-2.230;2022-12-18T10:32:52;14.02;;;6.55;;
37221;SDS011;23119;51.842;-2.230;2022-12-18T10:35:25;19.25;;;5.65;;
37221;SDS011;23119;51.842;-2.230;2022-12-18T10:38:05;14.98;;;6.30;;
37221;SDS011;23119;51.842;-2.230;2022-12-18T10:40:31;14.20;;;6.78;;
37221;SDS011;23119;51.842;-2.230;2022-12-18T10:43:05;15.23;;;6.40;;
37221;SDS011;23119;51.842;-2.230;2022-12-18T10:45:37;15.13;;;6.10;;
37221;SDS011;23119;51.842;-2.230;2022-12-18T10:48:08;15.27;;;7.78;;
37221;SDS011;23119;51.842;-2.230;2022-12-18T10:50:47;15.00;;;6.85;;
37221;SDS011;23119;51.842;-2.230;2022-12-18T10:53:35;19.40;;;5.65;;
37221;SDS011;23119;51.842;-2.230;2022-12-18T10:56:04;11.48;;;4.97;;
37221;SDS011;23119;51.842;-2.230;2022-12-18T10:58:32;16.50;;;6.63;;
37221;SDS011;23119;51.842;-2.230;2022-12-18T11:01:12;9.05;;;4.18;;
37221;SDS011;23119;51.842;-2.230;2022-12-18T11:03:41;9.15;;;3.75;;
37221;SDS011;23119;51.842;-2.230;2022-12-18T11:06:21;7.50;;;3.33;;
37221;SDS011;23119;51.842;-2.230;2022-12-18T11:11:31;9.57;;;3.85;;
37221;SDS011;23119;51.842;-2.230;2022-12-18T11:14:12;11.40;;;5.10;;
37221;SDS011;23119;51.842;-2.230;2022-12-18T11:16:47;14.18;;;5.00;;
37221;SDS011;23119;51.842;-2.230;2022-12-18T11:19:34;9.65;;;3.20;;
37221;SDS011;23119;51.842;-2.230;2022-12-18T11:22:24;11.30;;;4.68;;
37221;SDS011;23119;51.842;-2.230;2022-12-18T11:24:59;8.90;;;4.35;;
37221;SDS011;23119;51.842;-2.230;2022-12-18T11:27:28;9.05;;;4.63;;
37221;SDS011;23119;51.842;-2.230;2022-12-18T11:30:06;17.75;;;5.38;;
37221;SDS011;23119;51.842;-2.230;2022-12-18T11:35:47;12.27;;;4.88;;
37221;SDS011;23119;51.842;-2.230;2022-12-18T11:38:26;11.23;;;5.07;;
37221;SDS011;23119;51.842;-2.230;2022-12-18T11:41:01;14.60;;;5.80;;
37221;SDS011;23119;51.842;-2.230;2022-12-18T11:46:19;13.90;;;6.57;;
37221;SDS011;23119;51.842;-2.230;2022-12-18T11:52:17;11.65;;;6.13;;
37221;SDS011;23119;51.842;-2.230;2022-12-18T11:54:51;13.18;;;6.15;;
37221;SDS011;23119;51.842;-2.230;2022-12-18T12:03:03;6.72;;;2.95;;
37221;SDS011;23119;51.842;-2.230;2022-12-18T12:20:53;8.38;;;3.53;;
37221;SDS011;23119;51.842;-2.230;2022-12-18T12:23:34;12.23;;;4.28;;
37221;SDS011;23119;51.842;-2.230;2022-12-18T12:26:31;7.03;;;3.05;;
37221;SDS011;23119;51.842;-2.230;2022-12-18T12:29:22;16.98;;;7.05;;
37221;SDS011;23119;51.842;-2.230;2022-12-18T12:32:19;5.93;;;3.08;;
37221;SDS011;23119;51.842;-2.230;2022-12-18T12:40:17;10.10;;;3.40;;
37221;SDS011;23119;51.842;-2.230;2022-12-18T12:42:51;12.85;;;2.90;;
37221;SDS011;23119;51.842;-2.230;2022-12-18T12:48:33;13.70;;;5.55;;
37221;SDS011;23119;51.842;-2.230;2022-12-18T12:51:01;12.48;;;5.38;;
37221;SDS011;23119;51.842;-2.230;2022-12-18T12:53:34;7.22;;;2.83;;
37221;SDS011;23119;51.842;-2.230;2022-12-18T12:56:01;9.57;;;3.83;;
37221;SDS011;23119;51.842;-2.230;2022-12-18T13:03:43;5.78;;;2.63;;
37221;SDS011;23119;51.842;-2.230;2022-12-18T13:12:50;3.67;;;1.05;;
37221;SDS011;23119;51.842;-2.230;2022-12-18T13:20:42;6.32;;;2.10;;
37221;SDS011;23119;51.842;-2.230;2022-12-18T13:26:00;7.50;;;3.25;;
37221;SDS011;23119;51.842;-2.230;2022-12-18T13:34:22;8.50;;;3.03;;
37221;SDS011;23119;51.842;-2.230;2022-12-18T13:36:54;6.38;;;2.92;;
37221;SDS011;23119;51.842;-2.230;2022-12-18T13:39:47;5.05;;;2.10;;
37221;SDS011;23119;51.842;-2.230;2022-12-18T13:45:02;4.30;;;2.00;;
37221;SDS011;23119;51.842;-2.230;2022-12-18T13:48:02;5.93;;;1.52;;
37221;SDS011;23119;51.842;-2.230;2022-12-18T13:50:28;4.50;;;2.25;;
37221;SDS011;23119;51.842;-2.230;2022-12-18T13:52:55;5.60;;;2.08;;
37221;SDS011;23119;51.842;-2.230;2022-12-18T13:55:21;3.15;;;1.73;;
37221;SDS011;23119;51.842;-2.230;2022-12-18T13:57:50;9.90;;;4.63;;
37221;SDS011;23119;51.842;-2.230;2022-12-18T14:00:36;2.78;;;0.70;;
37221;SDS011;23119;51.842;-2.230;2022-12-18T14:03:20;2.05;;;0.70;;
37221;SDS011;23119;51.842;-2.230;2022-12-18T14:05:52;2.17;;;0.63;;
37221;SDS011;23119;51.842;-2.230;2022-12-18T14:08:20;2.92;;;1.25;;
37221;SDS011;23119;51.842;-2.230;2022-12-18T14:10:47;1.85;;;0.40;;
37221;SDS011;23119;51.842;-2.230;2022-12-18T14:13:35;1.27;;;0.50;;
37221;SDS011;23119;51.842;-2.230;2022-12-18T14:16:05;1.20;;;0.50;;
37221;SDS011;23119;51.842;-2.230;2022-12-18T14:18:43;2.20;;;0.63;;
37221;SDS011;23119;51.842;-2.230;2022-12-18T14:21:28;3.25;;;0.70;;
37221;SDS011;23119;51.842;-2.230;2022-12-18T14:26:47;2.20;;;0.50;;
37221;SDS011;23119;51.842;-2.230;2022-12-18T14:29:30;0.75;;;0.40;;
37221;SDS011;23119;51.842;-2.230;2022-12-18T14:32:18;1.70;;;0.63;;
37221;SDS011;23119;51.842;-2.230;2022-12-18T14:34:46;1.02;;;0.40;;
37221;SDS011;23119;51.842;-2.230;2022-12-18T14:37:14;1.17;;;0.35;;
37221;SDS011;23119;51.842;-2.230;2022-12-18T14:39:51;1.30;;;0.45;;
37221;SDS011;23119;51.842;-2.230;2022-12-18T14:42:22;1.42;;;0.50;;
37221;SDS011;23119;51.842;-2.230;2022-12-18T14:47:59;1.67;;;0.80;;
37221;SDS011;23119;51.842;-2.230;2022-12-18T14:50:25;1.00;;;0.47;;
37221;SDS011;23119;51.842;-2.230;2022-12-18T14:52:56;1.17;;;0.60;;
37221;SDS011;23119;51.842;-2.230;2022-12-18T14:55:24;0.90;;;0.50;;
37221;SDS011;23119;51.842;-2.230;2022-12-18T14:57:51;1.95;;;0.50;;
37221;SDS011;23119;51.842;-2.230;2022-12-18T15:00:20;1.33;;;0.50;;
37221;SDS011;23119;51.842;-2.230;2022-12-18T15:02:53;0.38;;;0.17;;
37221;SDS011;23119;51.842;-2.230;2022-12-18T15:05:31;0.95;;;0.40;;
37221;SDS011;23119;51.842;-2.230;2022-12-18T15:08:00;0.55;;;0.32;;
37221;SDS011;23119;51.842;-2.230;2022-12-18T15:10:33;1.20;;;0.30;;
37221;SDS011;23119;51.842;-2.230;2022-12-18T15:13:20;0.47;;;0.20;;
37221;SDS011;23119;51.842;-2.230;2022-12-18T15:15:54;0.40;;;0.13;;
37221;SDS011;23119;51.842;-2.230;2022-12-18T15:18:43;0.30;;;0.10;;
37221;SDS011;23119;51.842;-2.230;2022-12-18T15:21:17;0.43;;;0.10;;
37221;SDS011;23119;51.842;-2.230;2022-12-18T15:23:48;0.40;;;0.30;;
37221;SDS011;23119;51.842;-2.230;2022-12-18T15:26:19;0.90;;;0.30;;
37221;SDS011;23119;51.842;-2.230;2022-12-18T15:28:56;0.15;;;0.10;;
37221;SDS011;23119;51.842;-2.230;2022-12-18T15:31:31;0.10;;;0.10;;
37221;SDS011;23119;51.842;-2.230;2022-12-18T15:36:41;0.47;;;0.15;;
37221;SDS011;23119;51.842;-2.230;2022-12-18T15:39:09;0.30;;;0.10;;
37221;SDS011;23119;51.842;-2.230;2022-12-18T15:41:37;0.98;;;0.30;;
37221;SDS011;23119;51.842;-2.230;2022-12-18T15:47:04;0.55;;;0.20;;
37221;SDS011;23119;51.842;-2.230;2022-12-18T15:49:36;0.95;;;0.20;;
37221;SDS011;23119;51.842;-2.230;2022-12-18T15:52:04;0.52;;;0.20;;
37221;SDS011;23119;51.842;-2.230;2022-12-18T15:54:32;1.20;;;0.32;;
37221;SDS011;23119;51.842;-2.230;2022-12-18T15:57:21;0.63;;;0.30;;
37221;SDS011;23119;51.842;-2.230;2022-12-18T15:59:50;0.60;;;0.10;;
37221;SDS011;23119;51.842;-2.230;2022-12-18T16:02:23;0.20;;;0.13;;
37221;SDS011;23119;51.842;-2.230;2022-12-18T16:04:54;0.55;;;0.17;;
37221;SDS011;23119;51.842;-2.230;2022-12-18T16:07:20;0.85;;;0.20;;
37221;SDS011;23119;51.842;-2.230;2022-12-18T16:09:50;1.20;;;0.20;;
37221;SDS011;23119;51.842;-2.230;2022-12-18T16:12:19;0.20;;;0.10;;
37221;SDS011;23119;51.842;-2.230;2022-12-18T16:14:47;0.65;;;0.30;;
37221;SDS011;23119;51.842;-2.230;2022-12-18T16:17:13;0.52;;;0.20;;
37221;SDS011;23119;51.842;-2.230;2022-12-18T16:19:39;0.50;;;0.20;;
37221;SDS011;23119;51.842;-2.230;2022-12-18T16:22:15;0.98;;;0.20;;
37221;SDS011;23119;51.842;-2.230;2022-12-18T16:24:45;0.75;;;0.43;;
37221;SDS011;23119;51.842;-2.230;2022-12-18T16:27:15;1.23;;;0.10;;
37221;SDS011;23119;51.842;-2.230;2022-12-18T16:29:44;0.22;;;0.10;;
37221;SDS011;23119;51.842;-2.230;2022-12-18T16:32:12;0.95;;;0.30;;
37221;SDS011;23119;51.842;-2.230;2022-12-18T16:34:42;1.20;;;0.20;;
37221;SDS011;23119;51.842;-2.230;2022-12-18T16:37:09;0.30;;;0.20;;
37221;SDS011;23119;51.842;-2.230;2022-12-18T16:39:37;0.10;;;0.10;;
37221;SDS011;23119;51.842;-2.230;2022-12-18T16:42:13;0.10;;;0.00;;
37221;SDS011;23119;51.842;-2.230;2022-12-18T16:44:54;0.85;;;0.30;;
37221;SDS011;23119;51.842;-2.230;2022-12-18T16:47:20;0.40;;;0.20;;
37221;SDS011;23119;51.842;-2.230;2022-12-18T16:49:45;0.55;;;0.20;;
37221;SDS011;23119;51.842;-2.230;2022-12-18T16:52:13;0.30;;;0.20;;
37221;SDS011;23119;51.842;-2.230;2022-12-18T16:54:43;0.50;;;0.20;;
37221;SDS011;23119;51.842;-2.230;2022-12-18T16:57:12;1.20;;;0.20;;
37221;SDS011;23119;51.842;-2.230;2022-12-18T16:59:44;0.68;;;0.65;;
37221;SDS011;23119;51.842;-2.230;2022-12-18T17:02:20;0.47;;;0.20;;
37221;SDS011;23119;51.842;-2.230;2022-12-18T17:04:47;0.98;;;0.20;;
37221;SDS011;23119;51.842;-2.230;2022-12-18T17:07:17;0.70;;;0.20;;